createdAt,value
2022-08-07T00:02:39.871Z,1.20
2022-08-07T00:06:33.797Z,1.17
2022-08-07T00:10:25.934Z,0.85
2022-08-07T00:14:12.058Z,1.40
2022-08-07T00:17:58.044Z,1.27
2022-08-07T00:21:57.181Z,1.00
2022-08-07T00:25:52.485Z,1.27
2022-08-07T00:29:44.088Z,0.93
2022-08-07T00:33:36.058Z,0.90
2022-08-07T00:37:21.077Z,1.00
2022-08-07T00:41:09.901Z,1.08
2022-08-07T00:44:59.045Z,1.13
2022-08-07T00:48:51.816Z,1.08
2022-08-07T00:52:51.082Z,1.30
2022-08-07T00:56:52.083Z,1.27
2022-08-07T01:00:53.608Z,0.95
2022-08-07T01:04:43.352Z,1.05
2022-08-07T01:08:37.100Z,1.20
2022-08-07T01:12:31.039Z,1.27
2022-08-07T01:16:30.373Z,1.13
2022-08-07T01:20:24.084Z,0.90
2022-08-07T01:24:31.060Z,1.02
2022-08-07T01:28:30.108Z,1.20
2022-08-07T01:32:22.554Z,1.13
2022-08-07T01:36:09.073Z,1.33
2022-08-07T01:40:14.822Z,1.05
2022-08-07T01:44:07.074Z,1.05
2022-08-07T01:48:18.116Z,1.27
2022-08-07T01:52:08.114Z,1.40
2022-08-07T01:55:57.155Z,1.53
2022-08-07T02:00:04.140Z,1.67
2022-08-07T02:03:56.301Z,1.63
2022-08-07T02:07:55.135Z,1.70
2022-08-07T02:12:03.459Z,1.23
2022-08-07T02:15:54.116Z,1.10
2022-08-07T02:20:04.431Z,1.30
2022-08-07T02:23:47.122Z,1.30
2022-08-07T02:27:37.115Z,1.85
2022-08-07T02:31:34.121Z,1.50
2022-08-07T02:36:30.214Z,1.80
2022-08-07T02:39:43.755Z,1.77
2022-08-07T02:43:47.643Z,2.20
2022-08-07T02:47:48.837Z,1.55
2022-08-07T02:51:49.613Z,1.87
2022-08-07T02:56:03.452Z,1.63
2022-08-07T03:00:01.181Z,1.73
2022-08-07T03:03:57.130Z,1.85
2022-08-07T03:08:07.971Z,1.77
2022-08-07T03:11:57.877Z,1.93
2022-08-07T03:15:47.647Z,1.90
2022-08-07T03:19:54.585Z,2.00
2022-08-07T03:24:19.075Z,1.90
2022-08-07T03:28:08.781Z,2.13
2022-08-07T03:31:57.117Z,1.80
2022-08-07T03:36:00.164Z,2.15
2022-08-07T03:40:07.345Z,1.85
2022-08-07T03:44:01.137Z,2.05
2022-08-07T03:47:54.155Z,2.00
2022-08-07T03:51:47.742Z,2.05
2022-08-07T03:55:57.656Z,2.28
2022-08-07T03:59:46.548Z,1.85
2022-08-07T04:03:53.320Z,1.73
2022-08-07T04:07:42.708Z,1.57
2022-08-07T04:12:23.605Z,1.55
2022-08-07T04:15:36.231Z,2.13
2022-08-07T04:19:22.138Z,2.15
2022-08-07T04:23:43.275Z,2.05
2022-08-07T04:27:26.412Z,2.43
2022-08-07T04:31:20.024Z,2.15
2022-08-07T04:35:05.400Z,2.53
2022-08-07T04:38:51.324Z,3.05
2022-08-07T04:42:36.272Z,2.83
2022-08-07T04:47:04.357Z,2.70
2022-08-07T04:51:20.188Z,2.45
2022-08-07T04:58:10.084Z,2.30
2022-08-07T05:00:11.956Z,2.53
2022-08-07T05:04:12.357Z,1.30
2022-08-07T05:08:18.173Z,1.20
2022-08-07T05:12:30.467Z,1.48
2022-08-07T05:16:17.278Z,1.35
2022-08-07T05:20:07.762Z,1.38
2022-08-07T05:24:09.195Z,1.08
2022-08-07T05:28:15.756Z,0.70
2022-08-07T05:32:02.174Z,0.90
2022-08-07T05:35:49.191Z,0.93
2022-08-07T05:40:05.604Z,0.73
2022-08-07T05:44:07.613Z,0.85
2022-08-07T05:48:01.549Z,1.10
2022-08-07T05:51:51.213Z,0.90
2022-08-07T05:56:03.666Z,0.90
2022-08-07T05:59:58.170Z,0.77
2022-08-07T06:03:53.599Z,0.90
2022-08-07T06:08:13.090Z,0.90
2022-08-07T06:11:48.219Z,1.20
2022-08-07T06:15:42.545Z,1.20
2022-08-07T06:19:58.314Z,0.93
2022-08-07T06:24:38.695Z,1.45
2022-08-07T06:28:00.984Z,1.17
2022-08-07T06:31:54.227Z,1.27
2022-08-07T06:36:13.487Z,1.10
2022-08-07T06:40:17.640Z,1.20
2022-08-07T06:44:01.343Z,1.58
2022-08-07T06:47:57.428Z,1.00
2022-08-07T06:51:50.096Z,1.10
2022-08-07T06:55:53.602Z,1.00
2022-08-07T07:00:11.856Z,1.23
2022-08-07T07:04:32.285Z,1.13
2022-08-07T07:08:10.105Z,1.73
2022-08-07T07:12:07.823Z,1.25
2022-08-07T07:16:11.299Z,1.55
2022-08-07T07:19:59.201Z,1.00
2022-08-07T07:24:06.582Z,1.23
2022-08-07T07:28:07.839Z,1.40
2022-08-07T07:32:19.289Z,1.10
2022-08-07T07:36:13.306Z,1.90
2022-08-07T07:40:15.207Z,1.30
2022-08-07T07:44:17.931Z,2.20
2022-08-07T07:48:24.316Z,1.60
2022-08-07T07:52:24.273Z,1.33
2022-08-07T07:56:30.079Z,1.10
2022-08-07T08:00:29.655Z,1.77
2022-08-07T08:04:20.334Z,1.48
2022-08-07T08:08:35.290Z,1.80
2022-08-07T08:12:58.904Z,1.63
2022-08-07T08:16:50.862Z,1.27
2022-08-07T08:20:32.229Z,1.73
2022-08-07T08:24:45.524Z,1.67
2022-08-07T08:28:45.120Z,1.57
2022-08-07T08:32:48.981Z,1.63
2022-08-07T08:36:46.213Z,1.67
2022-08-07T08:40:39.320Z,1.90
2022-08-07T08:45:00.308Z,1.83
2022-08-07T08:49:13.315Z,1.07
2022-08-07T08:53:16.493Z,1.90
2022-08-07T08:57:07.080Z,1.42
2022-08-07T09:01:15.810Z,1.40
2022-08-07T09:05:36.608Z,1.20
2022-08-07T09:09:56.640Z,1.70
2022-08-07T09:14:19.403Z,1.73
2022-08-07T09:18:27.865Z,1.50
2022-08-07T09:24:27.478Z,1.33
2022-08-07T09:27:09.008Z,1.30
2022-08-07T09:31:15.978Z,1.00
2022-08-07T09:36:00.919Z,1.40
2022-08-07T09:39:58.015Z,1.30
2022-08-07T09:44:06.370Z,1.95
2022-08-07T09:48:15.352Z,1.83
2022-08-07T09:52:33.811Z,1.60
2022-08-07T09:56:54.359Z,1.30
2022-08-07T10:01:14.823Z,1.58
2022-08-07T10:05:59.566Z,1.13
2022-08-07T10:10:12.128Z,1.50
2022-08-07T10:14:30.450Z,0.97
2022-08-07T10:18:50.412Z,0.88
2022-08-07T10:22:45.422Z,1.00
2022-08-07T10:27:00.374Z,1.13
2022-08-07T10:31:38.594Z,1.10
2022-08-07T10:35:53.663Z,1.40
2022-08-07T10:40:06.132Z,1.42
2022-08-07T10:44:14.367Z,1.45
2022-08-07T10:48:40.371Z,1.77
2022-08-07T10:52:42.605Z,1.50
2022-08-07T10:57:17.349Z,2.55
2022-08-07T11:01:35.284Z,2.40
2022-08-07T11:05:35.731Z,2.45
2022-08-07T11:10:07.747Z,1.83
2022-08-07T11:14:45.852Z,2.42
2022-08-07T11:18:24.511Z,2.13
2022-08-07T11:22:47.376Z,2.00
2022-08-07T11:26:57.399Z,1.83
2022-08-07T11:31:01.396Z,1.38
2022-08-07T11:34:54.605Z,1.40
2022-08-07T11:39:19.696Z,1.17
2022-08-07T11:43:54.294Z,1.52
2022-08-07T11:48:05.987Z,2.70
2022-08-07T11:52:08.687Z,1.73
2022-08-07T11:56:26.786Z,1.98
2022-08-07T12:00:28.300Z,1.50
2022-08-07T12:04:31.428Z,1.73
2022-08-07T12:08:37.451Z,1.23
2022-08-07T12:13:35.353Z,1.42
2022-08-07T12:17:33.578Z,1.40
2022-08-07T12:22:35.741Z,1.83
2022-08-07T12:26:29.001Z,1.70
2022-08-07T12:30:24.223Z,2.07
2022-08-07T12:34:19.496Z,1.83
2022-08-07T12:38:29.383Z,2.10
2022-08-07T12:42:27.086Z,1.85
2022-08-07T12:46:37.440Z,1.33
2022-08-07T12:50:49.056Z,1.20
2022-08-07T12:55:17.703Z,1.13
2022-08-07T12:59:20.560Z,2.13
2022-08-07T13:03:56.054Z,1.50
2022-08-07T13:08:13.633Z,2.03
2022-08-07T13:12:47.692Z,2.72
2022-08-07T13:16:36.793Z,2.60
2022-08-07T13:20:39.441Z,1.90
2022-08-07T13:24:43.959Z,2.38
2022-08-07T13:29:14.483Z,1.80
2022-08-07T13:34:14.789Z,1.73
2022-08-07T13:37:38.472Z,2.20
2022-08-07T13:41:42.560Z,3.85
2022-08-07T13:46:12.413Z,2.65
2022-08-07T13:50:34.120Z,2.45
2022-08-07T13:53:59.431Z,3.40
2022-08-07T13:58:01.976Z,2.60
2022-08-07T14:02:05.302Z,1.77
2022-08-07T14:05:52.473Z,1.73
2022-08-07T14:10:12.314Z,1.67
2022-08-07T14:13:55.200Z,0.90
2022-08-07T14:18:27.296Z,1.33
2022-08-07T14:22:03.389Z,1.70
2022-08-07T14:26:28.450Z,1.27
2022-08-07T14:30:33.119Z,1.67
2022-08-07T14:34:29.692Z,0.90
2022-08-07T14:38:26.626Z,2.08
2022-08-07T14:42:25.508Z,1.33
2022-08-07T14:46:13.534Z,1.80
2022-08-07T14:50:11.564Z,1.85
2022-08-07T14:54:31.376Z,1.55
2022-08-07T14:58:07.690Z,1.35
2022-08-07T15:02:33.037Z,1.23
2022-08-07T15:06:20.544Z,1.50
2022-08-07T15:10:12.547Z,1.35
2022-08-07T15:14:13.543Z,1.10
2022-08-07T15:18:14.361Z,1.10
2022-08-07T15:22:22.159Z,0.80
2022-08-07T15:26:21.631Z,1.13
2022-08-07T15:30:16.799Z,2.25
2022-08-07T15:34:14.941Z,2.33
2022-08-07T15:38:30.026Z,2.97
2022-08-07T15:46:52.932Z,2.50
2022-08-07T15:51:08.975Z,1.85
2022-08-07T15:55:11.288Z,2.58
2022-08-07T15:58:59.585Z,0.90
2022-08-07T16:03:00.562Z,2.20
2022-08-07T16:08:33.269Z,3.85
2022-08-07T16:11:31.615Z,2.97
2022-08-07T16:15:57.524Z,3.17
2022-08-07T16:20:02.570Z,2.40
2022-08-07T16:24:08.982Z,3.00
2022-08-07T16:30:07.733Z,4.80
2022-08-07T16:32:35.842Z,1.77
2022-08-07T16:37:02.410Z,3.10
2022-08-07T16:41:10.641Z,2.37
2022-08-07T16:46:47.506Z,1.25
2022-08-07T16:50:20.355Z,1.98
2022-08-07T16:54:06.277Z,1.30
2022-08-07T16:58:08.229Z,1.00
2022-08-07T17:02:14.603Z,0.90
2022-08-07T17:06:28.566Z,0.90
2022-08-07T17:10:36.612Z,1.08
2022-08-07T17:14:37.576Z,1.13
2022-08-07T17:18:46.099Z,1.10
2022-08-07T17:22:42.881Z,1.20
2022-08-07T17:26:49.803Z,1.58
2022-08-07T17:31:16.250Z,1.75
2022-08-07T17:35:51.177Z,1.67
2022-08-07T17:39:15.656Z,1.60
2022-08-07T17:43:18.420Z,1.20
2022-08-07T17:47:16.877Z,1.40
2022-08-07T17:51:59.974Z,1.60
2022-08-07T17:56:06.598Z,1.45
2022-08-07T18:00:02.628Z,0.90
2022-08-07T18:04:04.446Z,1.10
2022-08-07T18:08:03.752Z,1.05
2022-08-07T18:12:28.062Z,1.10
2022-08-07T18:16:57.418Z,1.20
2022-08-07T18:21:09.921Z,0.90
2022-08-07T18:25:24.163Z,1.20
2022-08-07T18:30:08.389Z,1.10
2022-08-07T18:34:37.788Z,0.95
2022-08-07T18:38:55.039Z,0.95
2022-08-07T18:42:56.653Z,1.23
2022-08-07T18:47:00.651Z,1.13
2022-08-07T18:51:01.669Z,0.90
2022-08-07T18:55:43.266Z,0.75
2022-08-07T19:00:00.721Z,0.88
2022-08-07T19:03:56.746Z,0.90
2022-08-07T19:08:13.933Z,0.90
2022-08-07T19:12:11.028Z,0.88
2022-08-07T19:17:04.125Z,0.90
2022-08-07T19:20:30.036Z,0.80
2022-08-07T19:24:30.907Z,0.73
2022-08-07T19:30:53.494Z,1.10
2022-08-07T19:32:45.631Z,1.02
2022-08-07T19:36:27.773Z,1.05
2022-08-07T19:40:30.830Z,1.58
2022-08-07T19:44:24.661Z,1.10
2022-08-07T19:48:18.780Z,1.13
2022-08-07T19:52:18.347Z,0.93
2022-08-07T19:56:12.180Z,0.75
2022-08-07T20:00:11.711Z,1.02
2022-08-07T20:04:06.808Z,1.20
2022-08-07T20:08:10.678Z,0.70
2022-08-07T20:12:22.166Z,1.00
2022-08-07T20:16:31.938Z,0.95
2022-08-07T20:20:35.992Z,0.80
2022-08-07T20:24:32.710Z,1.10
2022-08-07T20:28:29.313Z,0.90
2022-08-07T20:32:27.735Z,0.90
2022-08-07T20:36:22.644Z,0.80
2022-08-07T20:40:33.510Z,0.60
2022-08-07T20:44:21.729Z,0.80
2022-08-07T20:48:28.977Z,0.87
2022-08-07T20:52:29.889Z,1.05
2022-08-07T20:56:16.713Z,0.70
2022-08-07T21:00:18.729Z,1.08
2022-08-07T21:04:22.111Z,1.00
2022-08-07T21:08:08.736Z,0.83
2022-08-07T21:11:54.729Z,1.75
2022-08-07T21:15:58.485Z,1.13
2022-08-07T21:19:51.647Z,1.58
2022-08-07T21:24:09.844Z,1.00
2022-08-07T21:28:18.865Z,1.07
2022-08-07T21:32:43.849Z,1.13
2022-08-07T21:36:40.089Z,1.40
2022-08-07T21:40:38.962Z,0.85
2022-08-07T21:44:55.761Z,1.10
2022-08-07T21:49:04.711Z,0.80
2022-08-07T21:53:18.733Z,0.80
2022-08-07T21:57:39.709Z,1.00
2022-08-07T22:02:07.188Z,1.48
2022-08-07T22:05:56.734Z,1.20
2022-08-07T22:09:54.286Z,2.17
2022-08-07T22:13:52.170Z,4.78
2022-08-07T22:17:51.614Z,2.22
2022-08-07T22:22:04.882Z,2.45
2022-08-07T22:26:10.813Z,2.10
2022-08-07T22:30:27.352Z,1.70
2022-08-07T22:34:28.916Z,2.13
2022-08-07T22:38:26.478Z,2.65
2022-08-07T22:42:30.539Z,1.98
2022-08-07T22:47:02.895Z,1.73
2022-08-07T22:51:03.792Z,1.10
2022-08-07T22:55:22.841Z,1.20
2022-08-07T22:59:20.761Z,1.40
2022-08-07T23:03:57.975Z,1.80
2022-08-07T23:08:22.219Z,1.20
2022-08-07T23:12:40.047Z,1.17
2022-08-07T23:16:55.489Z,1.05
2022-08-07T23:21:09.801Z,0.80
2022-08-07T23:25:45.779Z,0.95
2022-08-07T23:30:37.524Z,0.90
2022-08-07T23:34:44.105Z,0.90
2022-08-07T23:38:56.821Z,1.02
2022-08-07T23:42:35.023Z,0.85
2022-08-07T23:46:29.812Z,0.95
2022-08-07T23:50:36.723Z,1.07
2022-08-07T23:55:01.817Z,0.93
